createdAt,value
2023-04-20T09:16:15.052Z,15.10
2023-04-20T09:17:14.931Z,15.10
2023-04-20T09:18:14.805Z,15.75
2023-04-20T09:19:14.819Z,16.53
2023-04-20T09:20:14.826Z,17.26
2023-04-20T09:22:12.427Z,18.78
2023-04-20T09:23:12.428Z,19.29
2023-04-20T09:24:12.427Z,19.63
2023-04-20T09:25:12.435Z,19.94
2023-04-20T09:26:12.475Z,20.25
2023-04-20T09:27:12.472Z,20.21
2023-04-20T09:28:12.484Z,19.92
2023-04-20T09:29:12.485Z,19.39
2023-04-20T09:30:12.505Z,18.74
2023-04-20T09:31:14.614Z,18.66
2023-04-20T10:19:24.800Z,15.90
2023-04-20T10:20:24.771Z,15.79
2023-04-20T10:25:23.312Z,15.61
2023-04-20T10:27:48.535Z,15.73
2023-04-20T11:22:54.831Z,14.79
2023-04-20T11:23:53.010Z,14.63
2023-04-20T11:24:53.025Z,14.73
2023-04-20T11:25:53.025Z,14.59
2023-04-20T11:26:53.050Z,14.55
2023-04-20T11:27:53.054Z,14.50
2023-04-20T11:28:55.152Z,14.36
2023-04-20T11:29:53.069Z,14.40
2023-04-20T11:30:53.081Z,14.22
2023-04-20T11:31:53.251Z,14.17
2023-04-20T11:32:53.168Z,14.08
2023-04-20T11:33:53.172Z,13.97
2023-04-20T11:34:56.103Z,13.95
2023-04-20T11:35:53.131Z,13.93
2023-04-20T11:36:53.148Z,13.89
2023-04-20T11:37:53.159Z,13.81
2023-04-20T11:38:53.183Z,13.77
2023-04-20T11:39:53.178Z,13.74
2023-04-20T11:40:53.184Z,13.77
2023-04-20T11:41:53.195Z,13.65
2023-04-20T11:42:53.196Z,13.62
2023-04-20T11:43:53.224Z,13.54
2023-04-20T11:44:53.219Z,13.42
